sensor_id;sensor_type;location;lat;lon;timestamp;temperature;humidity
19516;DHT22;9901;47.448;7.692;2022-09-01T00:01:46;16.40;99.90
19516;DHT22;9901;47.448;7.692;2022-09-01T00:04:17;16.40;99.90
19516;DHT22;9901;47.448;7.692;2022-09-01T00:06:46;16.30;99.90
19516;DHT22;9901;47.448;7.692;2022-09-01T00:09:17;16.30;99.90
19516;DHT22;9901;47.448;7.692;2022-09-01T00:11:46;16.30;99.90
19516;DHT22;9901;47.448;7.692;2022-09-01T00:14:13;16.30;99.90
19516;DHT22;9901;47.448;7.692;2022-09-01T00:16:39;16.20;99.90
19516;DHT22;9901;47.448;7.692;2022-09-01T00:19:21;16.20;99.90
19516;DHT22;9901;47.448;7.692;2022-09-01T00:21:47;16.20;99.90
19516;DHT22;9901;47.448;7.692;2022-09-01T00:24:15;16.20;99.90
19516;DHT22;9901;47.448;7.692;2022-09-01T00:26:42;16.20;99.90
19516;DHT22;9901;47.448;7.692;2022-09-01T00:29:11;16.20;99.90
19516;DHT22;9901;47.448;7.692;2022-09-01T00:31:49;16.10;99.90
19516;DHT22;9901;47.448;7.692;2022-09-01T00:34:16;16.10;99.90
19516;DHT22;9901;47.448;7.692;2022-09-01T00:36:44;16.10;99.90
19516;DHT22;9901;47.448;7.692;2022-09-01T00:39:20;16.10;99.90
19516;DHT22;9901;47.448;7.692;2022-09-01T00:41:55;16.10;99.90
19516;DHT22;9901;47.448;7.692;2022-09-01T00:44:23;16.10;99.90
19516;DHT22;9901;47.448;7.692;2022-09-01T00:46:53;16.00;99.90
19516;DHT22;9901;47.448;7.692;2022-09-01T00:49:38;16.00;99.90
19516;DHT22;9901;47.448;7.692;2022-09-01T00:54:53;16.00;99.90
19516;DHT22;9901;47.448;7.692;2022-09-01T00:59:58;16.00;99.90
19516;DHT22;9901;47.448;7.692;2022-09-01T01:02:25;16.10;99.90
19516;DHT22;9901;47.448;7.692;2022-09-01T01:04:51;16.00;99.90
19516;DHT22;9901;47.448;7.692;2022-09-01T01:07:18;16.00;99.90
19516;DHT22;9901;47.448;7.692;2022-09-01T01:09:47;16.00;99.90
19516;DHT22;9901;47.448;7.692;2022-09-01T01:12:13;16.00;99.90
19516;DHT22;9901;47.448;7.692;2022-09-01T01:14:47;16.00;99.90
19516;DHT22;9901;47.448;7.692;2022-09-01T01:17:16;16.00;99.90
19516;DHT22;9901;47.448;7.692;2022-09-01T01:19:45;16.00;99.90
19516;DHT22;9901;47.448;7.692;2022-09-01T01:25:29;15.90;99.90
19516;DHT22;9901;47.448;7.692;2022-09-01T01:28:19;15.90;99.90
19516;DHT22;9901;47.448;7.692;2022-09-01T01:30:52;15.90;99.90
19516;DHT22;9901;47.448;7.692;2022-09-01T01:33:26;15.90;99.90
19516;DHT22;9901;47.448;7.692;2022-09-01T01:36:27;15.80;99.90
19516;DHT22;9901;47.448;7.692;2022-09-01T01:39:22;15.80;99.90
19516;DHT22;9901;47.448;7.692;2022-09-01T01:41:53;15.80;99.90
19516;DHT22;9901;47.448;7.692;2022-09-01T01:44:21;15.80;99.90
19516;DHT22;9901;47.448;7.692;2022-09-01T01:46:51;15.80;99.90
19516;DHT22;9901;47.448;7.692;2022-09-01T01:49:26;15.80;99.90
19516;DHT22;9901;47.448;7.692;2022-09-01T01:51:59;15.80;99.90
19516;DHT22;9901;47.448;7.692;2022-09-01T01:54:31;15.80;99.90
19516;DHT22;9901;47.448;7.692;2022-09-01T01:57:03;15.70;99.90
19516;DHT22;9901;47.448;7.692;2022-09-01T01:59:29;15.70;99.90
19516;DHT22;9901;47.448;7.692;2022-09-01T02:01:57;15.70;99.90
19516;DHT22;9901;47.448;7.692;2022-09-01T02:04:26;15.70;99.90
19516;DHT22;9901;47.448;7.692;2022-09-01T02:09:21;15.70;99.90
19516;DHT22;9901;47.448;7.692;2022-09-01T02:11:47;15.70;99.90
19516;DHT22;9901;47.448;7.692;2022-09-01T02:14:19;15.70;99.90
19516;DHT22;9901;47.448;7.692;2022-09-01T02:16:46;15.60;99.90
19516;DHT22;9901;47.448;7.692;2022-09-01T02:19:12;15.60;99.90
19516;DHT22;9901;47.448;7.692;2022-09-01T02:21:38;15.60;99.90
19516;DHT22;9901;47.448;7.692;2022-09-01T02:24:09;15.50;99.90
19516;DHT22;9901;47.448;7.692;2022-09-01T02:26:42;15.60;99.90
19516;DHT22;9901;47.448;7.692;2022-09-01T02:29:17;15.60;99.90
19516;DHT22;9901;47.448;7.692;2022-09-01T02:31:45;15.50;99.90
19516;DHT22;9901;47.448;7.692;2022-09-01T02:34:11;15.50;99.90
19516;DHT22;9901;47.448;7.692;2022-09-01T02:36:49;15.40;99.90
19516;DHT22;9901;47.448;7.692;2022-09-01T02:39:33;15.40;99.90
19516;DHT22;9901;47.448;7.692;2022-09-01T02:41:59;15.30;99.90
19516;DHT22;9901;47.448;7.692;2022-09-01T02:44:26;15.40;99.90
19516;DHT22;9901;47.448;7.692;2022-09-01T02:46:56;15.30;99.90
19516;DHT22;9901;47.448;7.692;2022-09-01T02:49:23;15.30;99.90
19516;DHT22;9901;47.448;7.692;2022-09-01T02:51:53;15.30;99.90
19516;DHT22;9901;47.448;7.692;2022-09-01T02:54:23;15.30;99.90
19516;DHT22;9901;47.448;7.692;2022-09-01T02:56:49;15.30;99.90
19516;DHT22;9901;47.448;7.692;2022-09-01T02:59:16;15.30;99.90
19516;DHT22;9901;47.448;7.692;2022-09-01T03:01:47;15.20;99.90
19516;DHT22;9901;47.448;7.692;2022-09-01T03:04:13;15.20;99.90
19516;DHT22;9901;47.448;7.692;2022-09-01T03:06:40;15.20;99.90
19516;DHT22;9901;47.448;7.692;2022-09-01T03:09:09;15.20;99.90
19516;DHT22;9901;47.448;7.692;2022-09-01T03:11:37;15.20;99.90
19516;DHT22;9901;47.448;7.692;2022-09-01T03:14:04;15.20;99.90
19516;DHT22;9901;47.448;7.692;2022-09-01T03:16:32;15.20;99.90
19516;DHT22;9901;47.448;7.692;2022-09-01T03:19:01;15.20;99.90
19516;DHT22;9901;47.448;7.692;2022-09-01T03:21:30;15.20;99.90
19516;DHT22;9901;47.448;7.692;2022-09-01T03:24:02;15.20;99.90
19516;DHT22;9901;47.448;7.692;2022-09-01T03:26:29;15.30;99.90
19516;DHT22;9901;47.448;7.692;2022-09-01T03:28:56;15.20;99.90
19516;DHT22;9901;47.448;7.692;2022-09-01T03:31:22;15.20;99.90
19516;DHT22;9901;47.448;7.692;2022-09-01T03:33:54;15.20;99.90
19516;DHT22;9901;47.448;7.692;2022-09-01T03:36:25;15.20;99.90
19516;DHT22;9901;47.448;7.692;2022-09-01T03:38:55;15.20;99.90
19516;DHT22;9901;47.448;7.692;2022-09-01T03:41:24;15.10;99.90
19516;DHT22;9901;47.448;7.692;2022-09-01T03:43:51;15.10;99.90
19516;DHT22;9901;47.448;7.692;2022-09-01T03:46:20;15.10;99.90
19516;DHT22;9901;47.448;7.692;2022-09-01T03:48:51;15.00;99.90
19516;DHT22;9901;47.448;7.692;2022-09-01T03:51:19;15.00;99.90
19516;DHT22;9901;47.448;7.692;2022-09-01T03:53:47;14.90;99.90
19516;DHT22;9901;47.448;7.692;2022-09-01T03:56:13;15.00;99.90
19516;DHT22;9901;47.448;7.692;2022-09-01T03:58:40;14.90;99.90
19516;DHT22;9901;47.448;7.692;2022-09-01T04:01:14;14.90;99.90
19516;DHT22;9901;47.448;7.692;2022-09-01T04:03:40;14.90;99.90
19516;DHT22;9901;47.448;7.692;2022-09-01T04:06:12;14.90;99.90
19516;DHT22;9901;47.448;7.692;2022-09-01T04:08:38;14.90;99.90
19516;DHT22;9901;47.448;7.692;2022-09-01T04:11:14;14.90;99.90
19516;DHT22;9901;47.448;7.692;2022-09-01T04:13:43;14.90;99.90
19516;DHT22;9901;47.448;7.692;2022-09-01T04:16:19;14.90;99.90
19516;DHT22;9901;47.448;7.692;2022-09-01T04:19:07;14.90;99.90
19516;DHT22;9901;47.448;7.692;2022-09-01T04:21:46;14.90;99.90
19516;DHT22;9901;47.448;7.692;2022-09-01T04:24:15;14.90;99.90
19516;DHT22;9901;47.448;7.692;2022-09-01T04:26:48;14.80;99.90
19516;DHT22;9901;47.448;7.692;2022-09-01T04:29:18;14.80;99.90
19516;DHT22;9901;47.448;7.692;2022-09-01T04:31:53;14.80;99.90
19516;DHT22;9901;47.448;7.692;2022-09-01T04:34:33;14.80;99.90
19516;DHT22;9901;47.448;7.692;2022-09-01T04:37:19;14.80;99.90
19516;DHT22;9901;47.448;7.692;2022-09-01T04:39:50;14.80;99.90
19516;DHT22;9901;47.448;7.692;2022-09-01T04:42:18;14.80;99.90
19516;DHT22;9901;47.448;7.692;2022-09-01T04:45:05;14.80;99.90
19516;DHT22;9901;47.448;7.692;2022-09-01T04:47:35;14.80;99.90
19516;DHT22;9901;47.448;7.692;2022-09-01T04:50:11;14.90;99.90
19516;DHT22;9901;47.448;7.692;2022-09-01T04:52:45;14.90;99.90
19516;DHT22;9901;47.448;7.692;2022-09-01T04:55:13;14.90;99.90
19516;DHT22;9901;47.448;7.692;2022-09-01T04:57:46;14.90;99.90
19516;DHT22;9901;47.448;7.692;2022-09-01T05:00:46;14.80;99.90
19516;DHT22;9901;47.448;7.692;2022-09-01T05:03:20;14.90;99.90
19516;DHT22;9901;47.448;7.692;2022-09-01T05:05:54;14.90;99.90
19516;DHT22;9901;47.448;7.692;2022-09-01T05:08:22;14.90;99.90
19516;DHT22;9901;47.448;7.692;2022-09-01T05:10:49;15.00;99.90
19516;DHT22;9901;47.448;7.692;2022-09-01T05:13:17;15.10;99.90
19516;DHT22;9901;47.448;7.692;2022-09-01T05:15:45;15.10;99.90
19516;DHT22;9901;47.448;7.692;2022-09-01T05:18:16;15.10;99.90
19516;DHT22;9901;47.448;7.692;2022-09-01T05:20:49;15.20;99.90
19516;DHT22;9901;47.448;7.692;2022-09-01T05:23:15;15.20;99.90
19516;DHT22;9901;47.448;7.692;2022-09-01T05:25:46;15.20;99.90
19516;DHT22;9901;47.448;7.692;2022-09-01T05:28:17;15.20;99.90
19516;DHT22;9901;47.448;7.692;2022-09-01T05:30:46;15.30;99.90
19516;DHT22;9901;47.448;7.692;2022-09-01T05:33:15;15.40;99.90
19516;DHT22;9901;47.448;7.692;2022-09-01T05:35:52;15.40;99.90
19516;DHT22;9901;47.448;7.692;2022-09-01T05:38:19;15.50;99.90
19516;DHT22;9901;47.448;7.692;2022-09-01T05:40:57;15.50;99.90
19516;DHT22;9901;47.448;7.692;2022-09-01T05:43:23;15.60;99.90
19516;DHT22;9901;47.448;7.692;2022-09-01T05:46:05;15.60;99.90
19516;DHT22;9901;47.448;7.692;2022-09-01T05:48:34;15.60;99.90
19516;DHT22;9901;47.448;7.692;2022-09-01T05:51:18;15.60;99.90
19516;DHT22;9901;47.448;7.692;2022-09-01T05:53:49;15.60;99.90
19516;DHT22;9901;47.448;7.692;2022-09-01T05:56:17;15.70;99.90
19516;DHT22;9901;47.448;7.692;2022-09-01T05:58:45;15.70;99.90
19516;DHT22;9901;47.448;7.692;2022-09-01T06:04:07;15.70;99.90
19516;DHT22;9901;47.448;7.692;2022-09-01T06:06:38;15.80;99.90
19516;DHT22;9901;47.448;7.692;2022-09-01T06:09:18;15.80;99.90
19516;DHT22;9901;47.448;7.692;2022-09-01T06:11:52;15.70;99.90
19516;DHT22;9901;47.448;7.692;2022-09-01T06:14:26;15.80;99.90
19516;DHT22;9901;47.448;7.692;2022-09-01T06:16:52;15.90;99.90
19516;DHT22;9901;47.448;7.692;2022-09-01T06:19:18;15.90;99.90
19516;DHT22;9901;47.448;7.692;2022-09-01T06:21:51;15.90;99.90
19516;DHT22;9901;47.448;7.692;2022-09-01T06:24:18;15.90;99.90
19516;DHT22;9901;47.448;7.692;2022-09-01T06:26:53;16.00;99.90
19516;DHT22;9901;47.448;7.692;2022-09-01T06:29:22;16.00;99.90
19516;DHT22;9901;47.448;7.692;2022-09-01T06:31:47;16.00;99.90
19516;DHT22;9901;47.448;7.692;2022-09-01T06:34:16;16.00;99.90
19516;DHT22;9901;47.448;7.692;2022-09-01T06:36:44;16.00;99.90
19516;DHT22;9901;47.448;7.692;2022-09-01T06:39:10;16.10;99.90
19516;DHT22;9901;47.448;7.692;2022-09-01T06:41:49;16.10;99.90
19516;DHT22;9901;47.448;7.692;2022-09-01T06:44:20;16.10;99.90
19516;DHT22;9901;47.448;7.692;2022-09-01T06:46:52;16.10;99.90
19516;DHT22;9901;47.448;7.692;2022-09-01T06:49:19;16.10;99.90
19516;DHT22;9901;47.448;7.692;2022-09-01T06:51:46;16.10;99.90
19516;DHT22;9901;47.448;7.692;2022-09-01T06:54:12;16.10;99.90
19516;DHT22;9901;47.448;7.692;2022-09-01T06:56:40;16.20;99.90
19516;DHT22;9901;47.448;7.692;2022-09-01T06:59:05;16.20;99.90
19516;DHT22;9901;47.448;7.692;2022-09-01T07:01:32;16.20;99.90
19516;DHT22;9901;47.448;7.692;2022-09-01T07:03:58;16.20;99.90
19516;DHT22;9901;47.448;7.692;2022-09-01T07:06:24;16.20;99.90
19516;DHT22;9901;47.448;7.692;2022-09-01T07:09:18;16.20;99.90
19516;DHT22;9901;47.448;7.692;2022-09-01T07:11:49;16.30;99.90
19516;DHT22;9901;47.448;7.692;2022-09-01T07:14:24;16.30;99.90
19516;DHT22;9901;47.448;7.692;2022-09-01T07:16:50;16.30;99.90
19516;DHT22;9901;47.448;7.692;2022-09-01T07:19:16;16.30;99.90
19516;DHT22;9901;47.448;7.692;2022-09-01T07:21:43;16.30;99.90
19516;DHT22;9901;47.448;7.692;2022-09-01T07:24:10;16.40;99.90
19516;DHT22;9901;47.448;7.692;2022-09-01T07:26:38;16.40;99.90
19516;DHT22;9901;47.448;7.692;2022-09-01T07:29:05;16.40;99.90
19516;DHT22;9901;47.448;7.692;2022-09-01T07:31:38;16.50;99.90
19516;DHT22;9901;47.448;7.692;2022-09-01T07:34:07;16.60;99.90
19516;DHT22;9901;47.448;7.692;2022-09-01T07:36:44;16.60;99.90
19516;DHT22;9901;47.448;7.692;2022-09-01T07:39:12;16.70;99.90
19516;DHT22;9901;47.448;7.692;2022-09-01T07:41:39;16.70;99.90
19516;DHT22;9901;47.448;7.692;2022-09-01T07:44:08;16.70;99.90
19516;DHT22;9901;47.448;7.692;2022-09-01T07:46:38;16.80;99.90
19516;DHT22;9901;47.448;7.692;2022-09-01T07:49:04;16.80;99.90
19516;DHT22;9901;47.448;7.692;2022-09-01T07:51:30;16.80;99.90
19516;DHT22;9901;47.448;7.692;2022-09-01T07:54:01;16.90;99.90
19516;DHT22;9901;47.448;7.692;2022-09-01T07:56:30;16.90;99.90
19516;DHT22;9901;47.448;7.692;2022-09-01T07:59:06;17.00;99.90
19516;DHT22;9901;47.448;7.692;2022-09-01T08:05:10;17.20;99.90
19516;DHT22;9901;47.448;7.692;2022-09-01T08:07:38;17.20;99.90
19516;DHT22;9901;47.448;7.692;2022-09-01T08:10:06;17.30;99.90
19516;DHT22;9901;47.448;7.692;2022-09-01T08:12:33;17.40;99.90
19516;DHT22;9901;47.448;7.692;2022-09-01T08:15:04;17.50;99.90
19516;DHT22;9901;47.448;7.692;2022-09-01T08:17:37;17.50;99.90
19516;DHT22;9901;47.448;7.692;2022-09-01T08:20:04;17.50;99.90
19516;DHT22;9901;47.448;7.692;2022-09-01T08:22:36;17.50;99.90
19516;DHT22;9901;47.448;7.692;2022-09-01T08:25:07;17.50;99.90
19516;DHT22;9901;47.448;7.692;2022-09-01T08:27:35;17.50;99.90
19516;DHT22;9901;47.448;7.692;2022-09-01T08:30:16;17.50;99.90
19516;DHT22;9901;47.448;7.692;2022-09-01T08:32:42;17.50;99.90
19516;DHT22;9901;47.448;7.692;2022-09-01T08:35:12;17.60;99.90
19516;DHT22;9901;47.448;7.692;2022-09-01T08:37:38;17.60;99.90
19516;DHT22;9901;47.448;7.692;2022-09-01T08:40:06;17.70;99.90
19516;DHT22;9901;47.448;7.692;2022-09-01T08:45:54;17.80;99.90
19516;DHT22;9901;47.448;7.692;2022-09-01T08:48:37;17.90;99.90
19516;DHT22;9901;47.448;7.692;2022-09-01T08:51:31;18.10;99.90
19516;DHT22;9901;47.448;7.692;2022-09-01T08:56:45;18.50;99.90
19516;DHT22;9901;47.448;7.692;2022-09-01T08:59:11;18.70;99.90
19516;DHT22;9901;47.448;7.692;2022-09-01T09:01:42;18.90;99.90
19516;DHT22;9901;47.448;7.692;2022-09-01T09:04:37;19.00;99.90
19516;DHT22;9901;47.448;7.692;2022-09-01T09:10:03;19.30;99.90
19516;DHT22;9901;47.448;7.692;2022-09-01T09:21:12;19.90;99.90
19516;DHT22;9901;47.448;7.692;2022-09-01T09:23:44;20.10;99.90
19516;DHT22;9901;47.448;7.692;2022-09-01T09:26:14;20.00;99.90
19516;DHT22;9901;47.448;7.692;2022-09-01T09:28:39;19.80;99.90
19516;DHT22;9901;47.448;7.692;2022-09-01T09:31:36;19.70;99.90
19516;DHT22;9901;47.448;7.692;2022-09-01T09:36:52;19.30;99.90
19516;DHT22;9901;47.448;7.692;2022-09-01T09:39:18;19.40;99.90
19516;DHT22;9901;47.448;7.692;2022-09-01T09:42:04;19.70;99.90
19516;DHT22;9901;47.448;7.692;2022-09-01T09:44:46;19.80;99.90
19516;DHT22;9901;47.448;7.692;2022-09-01T09:47:36;19.70;99.90
19516;DHT22;9901;47.448;7.692;2022-09-01T09:52:48;20.00;99.90
19516;DHT22;9901;47.448;7.692;2022-09-01T09:55:25;20.10;99.90
19516;DHT22;9901;47.448;7.692;2022-09-01T09:57:55;20.10;99.90
19516;DHT22;9901;47.448;7.692;2022-09-01T10:00:28;20.10;99.90
19516;DHT22;9901;47.448;7.692;2022-09-01T10:03:00;20.20;99.90
19516;DHT22;9901;47.448;7.692;2022-09-01T10:07:58;20.00;99.90
19516;DHT22;9901;47.448;7.692;2022-09-01T10:10:40;20.70;99.90
19516;DHT22;9901;47.448;7.692;2022-09-01T10:13:24;21.30;99.90
19516;DHT22;9901;47.448;7.692;2022-09-01T10:16:01;22.20;99.90
19516;DHT22;9901;47.448;7.692;2022-09-01T10:18:40;22.70;99.90
19516;DHT22;9901;47.448;7.692;2022-09-01T10:21:14;23.00;99.90
19516;DHT22;9901;47.448;7.692;2022-09-01T10:23:41;23.00;99.90
19516;DHT22;9901;47.448;7.692;2022-09-01T10:26:32;23.30;99.90
19516;DHT22;9901;47.448;7.692;2022-09-01T10:31:30;23.50;99.90
19516;DHT22;9901;47.448;7.692;2022-09-01T10:33:58;23.90;99.90
19516;DHT22;9901;47.448;7.692;2022-09-01T10:36:27;24.30;99.90
19516;DHT22;9901;47.448;7.692;2022-09-01T10:38:53;24.60;99.90
19516;DHT22;9901;47.448;7.692;2022-09-01T10:41:47;24.90;99.90
19516;DHT22;9901;47.448;7.692;2022-09-01T10:44:21;25.00;99.90
19516;DHT22;9901;47.448;7.692;2022-09-01T10:46:50;24.60;99.90
19516;DHT22;9901;47.448;7.692;2022-09-01T10:51:54;24.30;99.90
19516;DHT22;9901;47.448;7.692;2022-09-01T10:57:35;23.80;99.90
19516;DHT22;9901;47.448;7.692;2022-09-01T11:06:11;24.20;99.90
19516;DHT22;9901;47.448;7.692;2022-09-01T11:09:02;24.00;99.90
19516;DHT22;9901;47.448;7.692;2022-09-01T11:14:20;24.10;99.90
19516;DHT22;9901;47.448;7.692;2022-09-01T11:17:10;23.90;99.90
19516;DHT22;9901;47.448;7.692;2022-09-01T11:36:28;25.20;99.90
19516;DHT22;9901;47.448;7.692;2022-09-01T11:39:08;25.00;99.90
19516;DHT22;9901;47.448;7.692;2022-09-01T11:44:26;25.20;99.90
19516;DHT22;9901;47.448;7.692;2022-09-01T11:47:01;25.30;99.90
19516;DHT22;9901;47.448;7.692;2022-09-01T11:49:33;25.40;99.90
19516;DHT22;9901;47.448;7.692;2022-09-01T11:52:00;24.80;99.90
19516;DHT22;9901;47.448;7.692;2022-09-01T11:54:42;24.70;99.90
19516;DHT22;9901;47.448;7.692;2022-09-01T11:57:35;24.60;99.90
19516;DHT22;9901;47.448;7.692;2022-09-01T12:00:09;25.10;99.90
19516;DHT22;9901;47.448;7.692;2022-09-01T12:02:50;25.60;99.90
19516;DHT22;9901;47.448;7.692;2022-09-01T12:07:51;26.50;99.90
19516;DHT22;9901;47.448;7.692;2022-09-01T12:10:28;26.80;99.90
19516;DHT22;9901;47.448;7.692;2022-09-01T12:13:07;27.10;99.90
19516;DHT22;9901;47.448;7.692;2022-09-01T12:15:35;27.30;99.90
19516;DHT22;9901;47.448;7.692;2022-09-01T12:18:19;27.10;99.90
19516;DHT22;9901;47.448;7.692;2022-09-01T12:20:47;27.10;99.90
19516;DHT22;9901;47.448;7.692;2022-09-01T12:23:31;27.20;99.90
19516;DHT22;9901;47.448;7.692;2022-09-01T12:26:22;27.00;99.90
19516;DHT22;9901;47.448;7.692;2022-09-01T12:31:22;25.80;99.90
19516;DHT22;9901;47.448;7.692;2022-09-01T12:33:50;25.60;99.90
19516;DHT22;9901;47.448;7.692;2022-09-01T12:36:28;25.60;99.90
19516;DHT22;9901;47.448;7.692;2022-09-01T12:39:21;25.70;99.90
19516;DHT22;9901;47.448;7.692;2022-09-01T12:42:05;26.00;99.90
19516;DHT22;9901;47.448;7.692;2022-09-01T12:52:52;26.80;99.90
19516;DHT22;9901;47.448;7.692;2022-09-01T12:55:38;27.00;99.90
19516;DHT22;9901;47.448;7.692;2022-09-01T12:58:08;27.20;99.90
19516;DHT22;9901;47.448;7.692;2022-09-01T13:03:20;27.50;99.90
19516;DHT22;9901;47.448;7.692;2022-09-01T13:05:52;27.80;99.90
19516;DHT22;9901;47.448;7.692;2022-09-01T13:10:47;27.80;99.90
19516;DHT22;9901;47.448;7.692;2022-09-01T13:13:15;27.80;99.90
19516;DHT22;9901;47.448;7.692;2022-09-01T13:15:45;27.80;99.90
19516;DHT22;9901;47.448;7.692;2022-09-01T13:18:13;27.60;99.90
19516;DHT22;9901;47.448;7.692;2022-09-01T13:20:39;26.90;99.90
19516;DHT22;9901;47.448;7.692;2022-09-01T13:23:07;26.40;99.90
19516;DHT22;9901;47.448;7.692;2022-09-01T13:25:33;26.30;99.90
19516;DHT22;9901;47.448;7.692;2022-09-01T13:28:00;26.70;99.90
19516;DHT22;9901;47.448;7.692;2022-09-01T13:30:27;26.90;99.90
19516;DHT22;9901;47.448;7.692;2022-09-01T13:32:55;27.10;99.90
19516;DHT22;9901;47.448;7.692;2022-09-01T13:35:22;27.40;99.90
19516;DHT22;9901;47.448;7.692;2022-09-01T13:37:49;27.30;99.90
19516;DHT22;9901;47.448;7.692;2022-09-01T13:40:17;27.20;99.90
19516;DHT22;9901;47.448;7.692;2022-09-01T13:42:52;27.20;99.90
19516;DHT22;9901;47.448;7.692;2022-09-01T13:45:22;27.20;99.90
19516;DHT22;9901;47.448;7.692;2022-09-01T13:47:53;27.10;99.90
19516;DHT22;9901;47.448;7.692;2022-09-01T13:50:20;27.00;99.90
19516;DHT22;9901;47.448;7.692;2022-09-01T13:52:51;27.10;99.90
19516;DHT22;9901;47.448;7.692;2022-09-01T13:55:21;27.00;99.90
19516;DHT22;9901;47.448;7.692;2022-09-01T13:57:51;27.00;99.90
19516;DHT22;9901;47.448;7.692;2022-09-01T14:00:20;27.20;99.90
19516;DHT22;9901;47.448;7.692;2022-09-01T14:02:49;27.00;99.90
19516;DHT22;9901;47.448;7.692;2022-09-01T14:05:23;26.90;99.90
19516;DHT22;9901;47.448;7.692;2022-09-01T14:07:51;26.90;99.90
19516;DHT22;9901;47.448;7.692;2022-09-01T14:10:18;26.50;99.90
19516;DHT22;9901;47.448;7.692;2022-09-01T14:12:44;26.00;99.90
19516;DHT22;9901;47.448;7.692;2022-09-01T14:15:12;25.80;99.90
19516;DHT22;9901;47.448;7.692;2022-09-01T14:17:39;25.70;99.90
19516;DHT22;9901;47.448;7.692;2022-09-01T14:20:12;25.60;99.90
19516;DHT22;9901;47.448;7.692;2022-09-01T14:22:42;25.60;99.90
19516;DHT22;9901;47.448;7.692;2022-09-01T14:25:08;25.50;99.90
19516;DHT22;9901;47.448;7.692;2022-09-01T14:27:38;25.50;99.90
19516;DHT22;9901;47.448;7.692;2022-09-01T14:30:08;25.50;99.90
19516;DHT22;9901;47.448;7.692;2022-09-01T14:32:34;25.60;99.90
19516;DHT22;9901;47.448;7.692;2022-09-01T14:35:01;25.60;99.90
19516;DHT22;9901;47.448;7.692;2022-09-01T14:37:27;25.60;99.90
19516;DHT22;9901;47.448;7.692;2022-09-01T14:39:55;25.60;99.90
19516;DHT22;9901;47.448;7.692;2022-09-01T14:42:22;25.60;99.90
19516;DHT22;9901;47.448;7.692;2022-09-01T14:44:50;25.60;99.90
19516;DHT22;9901;47.448;7.692;2022-09-01T14:47:17;25.60;99.90
19516;DHT22;9901;47.448;7.692;2022-09-01T14:49:43;25.60;99.90
19516;DHT22;9901;47.448;7.692;2022-09-01T14:52:10;25.60;99.90
19516;DHT22;9901;47.448;7.692;2022-09-01T14:54:37;25.60;99.90
19516;DHT22;9901;47.448;7.692;2022-09-01T14:57:04;25.50;99.90
19516;DHT22;9901;47.448;7.692;2022-09-01T14:59:31;25.60;99.90
19516;DHT22;9901;47.448;7.692;2022-09-01T15:01:57;25.60;99.90
19516;DHT22;9901;47.448;7.692;2022-09-01T15:04:25;25.50;99.90
19516;DHT22;9901;47.448;7.692;2022-09-01T15:13:17;24.90;99.90
19516;DHT22;9901;47.448;7.692;2022-09-01T15:15:51;24.90;99.90
19516;DHT22;9901;47.448;7.692;2022-09-01T15:21:42;25.10;99.90
19516;DHT22;9901;47.448;7.692;2022-09-01T15:24:11;25.00;99.90
19516;DHT22;9901;47.448;7.692;2022-09-01T15:26:38;24.90;99.90
19516;DHT22;9901;47.448;7.692;2022-09-01T15:29:13;24.90;99.90
19516;DHT22;9901;47.448;7.692;2022-09-01T15:31:47;24.80;99.90
19516;DHT22;9901;47.448;7.692;2022-09-01T15:34:25;24.70;99.90
19516;DHT22;9901;47.448;7.692;2022-09-01T15:36:52;24.80;99.90
19516;DHT22;9901;47.448;7.692;2022-09-01T15:39:33;24.70;99.90
19516;DHT22;9901;47.448;7.692;2022-09-01T15:42:05;24.70;99.90
19516;DHT22;9901;47.448;7.692;2022-09-01T15:44:32;24.50;99.90
19516;DHT22;9901;47.448;7.692;2022-09-01T15:47:10;24.40;99.90
19516;DHT22;9901;47.448;7.692;2022-09-01T15:49:56;24.50;99.90
19516;DHT22;9901;47.448;7.692;2022-09-01T15:52:25;25.70;99.90
19516;DHT22;9901;47.448;7.692;2022-09-01T15:54:57;25.00;99.90
19516;DHT22;9901;47.448;7.692;2022-09-01T15:57:26;25.00;99.90
19516;DHT22;9901;47.448;7.692;2022-09-01T16:00:16;25.30;99.90
19516;DHT22;9901;47.448;7.692;2022-09-01T16:03:02;27.00;99.90
19516;DHT22;9901;47.448;7.692;2022-09-01T16:09:21;26.30;99.90
19516;DHT22;9901;47.448;7.692;2022-09-01T16:12:24;25.50;99.90
19516;DHT22;9901;47.448;7.692;2022-09-01T16:18:28;24.90;99.90
19516;DHT22;9901;47.448;7.692;2022-09-01T17:08:49;22.90;99.90
19516;DHT22;9901;47.448;7.692;2022-09-01T17:15:04;22.80;99.90
19516;DHT22;9901;47.448;7.692;2022-09-01T17:17:52;22.70;99.90
19516;DHT22;9901;47.448;7.692;2022-09-01T17:20:24;22.50;99.90
19516;DHT22;9901;47.448;7.692;2022-09-01T17:22:56;22.50;99.90
19516;DHT22;9901;47.448;7.692;2022-09-01T17:25:33;22.30;99.90
19516;DHT22;9901;47.448;7.692;2022-09-01T17:28:12;22.30;99.90
19516;DHT22;9901;47.448;7.692;2022-09-01T17:31:08;22.20;99.90
19516;DHT22;9901;47.448;7.692;2022-09-01T17:37:22;22.10;99.90
19516;DHT22;9901;47.448;7.692;2022-09-01T17:47:11;21.90;99.90
19516;DHT22;9901;47.448;7.692;2022-09-01T18:04:50;21.40;99.90
19516;DHT22;9901;47.448;7.692;2022-09-01T18:10:14;21.40;99.90
19516;DHT22;9901;47.448;7.692;2022-09-01T18:12:50;21.40;99.90
19516;DHT22;9901;47.448;7.692;2022-09-01T18:15:51;21.30;99.90
19516;DHT22;9901;47.448;7.692;2022-09-01T18:18:48;21.20;99.90
19516;DHT22;9901;47.448;7.692;2022-09-01T18:21:24;21.20;99.90
19516;DHT22;9901;47.448;7.692;2022-09-01T18:23:56;21.10;99.90
19516;DHT22;9901;47.448;7.692;2022-09-01T18:26:29;21.10;99.90
19516;DHT22;9901;47.448;7.692;2022-09-01T18:29:00;21.00;99.90
19516;DHT22;9901;47.448;7.692;2022-09-01T18:45:42;20.90;99.90
19516;DHT22;9901;47.448;7.692;2022-09-01T18:56:53;20.60;99.90
19516;DHT22;9901;47.448;7.692;2022-09-01T19:07:58;20.10;99.90
19516;DHT22;9901;47.448;7.692;2022-09-01T19:13:29;19.90;99.90
19516;DHT22;9901;47.448;7.692;2022-09-01T19:16:23;19.90;99.90
19516;DHT22;9901;47.448;7.692;2022-09-01T19:21:52;19.70;99.90
19516;DHT22;9901;47.448;7.692;2022-09-01T19:24:48;19.50;99.90
19516;DHT22;9901;47.448;7.692;2022-09-01T19:27:20;19.50;99.90
19516;DHT22;9901;47.448;7.692;2022-09-01T19:29:54;19.50;99.90
19516;DHT22;9901;47.448;7.692;2022-09-01T19:32:30;19.40;99.90
19516;DHT22;9901;47.448;7.692;2022-09-01T19:37:31;19.30;99.90
19516;DHT22;9901;47.448;7.692;2022-09-01T19:39:57;19.30;99.90
19516;DHT22;9901;47.448;7.692;2022-09-01T19:42:57;19.20;99.90
19516;DHT22;9901;47.448;7.692;2022-09-01T19:48:09;19.10;99.90
19516;DHT22;9901;47.448;7.692;2022-09-01T19:51:02;19.00;99.90
19516;DHT22;9901;47.448;7.692;2022-09-01T19:54:07;19.00;99.90
19516;DHT22;9901;47.448;7.692;2022-09-01T19:56:45;18.90;99.90
19516;DHT22;9901;47.448;7.692;2022-09-01T20:05:06;18.90;99.90
19516;DHT22;9901;47.448;7.692;2022-09-01T20:10:23;18.70;99.90
19516;DHT22;9901;47.448;7.692;2022-09-01T20:13:26;18.70;99.90
19516;DHT22;9901;47.448;7.692;2022-09-01T20:19:02;18.60;99.90
19516;DHT22;9901;47.448;7.692;2022-09-01T20:21:33;18.50;99.90
19516;DHT22;9901;47.448;7.692;2022-09-01T20:24:13;18.50;99.90
19516;DHT22;9901;47.448;7.692;2022-09-01T20:26:53;18.50;99.90
19516;DHT22;9901;47.448;7.692;2022-09-01T20:30:13;18.40;99.90